Sunday, November 19, 2017, 4:50 AM GMT
Back to Local

CYOY, Valcartier Airport

Location: , , Canada Lat: 46.9
Local Time: 4:50 AM GMT ( 4:50 GMT) Lon: -71.5
Time Zone: GMT Elev: 551 ft

Show me the last for .
Show Coded

Time T Td Feel RH Dir Speed Gust Alt SLP Vis Weather Sky Remarks
2017-11-19 04:00 30 19 23 63 100° 8 - 29.45 29.48 9 OVC063 None
2017-11-19 03:00 30 19 - 63 110° 2 - 29.50 29.53 9 OVC057 OVC091 None
2017-11-19 02:00 30 19 25 63 120° 5 - 29.54 29.57 9 SCT048 OVC058 None
2017-11-19 01:00 30 19 27 63 110° 3 - 29.57 29.61 9 BKN056 None
2017-11-19 00:00 30 18 23 58 110° 7 - 29.59 29.63 9 FEW061 OVC072 OVC095 None
2017-11-18 23:00 28 18 25 63 90° 3 - 29.60 29.63 9 OVC082 None
2017-11-18 22:00 27 18 23 68 50° 3 - 29.63 29.66 9 OVC086 None
2017-11-18 21:00 27 18 23 68 90° 3 - 29.62 29.65 9 FEW084 SCT092 None
2017-11-18 20:00 25 16 17 68 50° 7 - 29.64 29.67 9 FEW066 FEW072 FEW080 FEW092 Pressure falling rapidly
2017-11-18 19:00 25 16 17 68 170° 7 - 29.72 29.76 9 FEW092 None
2017-11-18 18:00 25 16 20 68 120° 3 - 29.73 29.76 9 CLR None
2017-11-18 17:00 23 14 17 67 100° 5 - 29.76 29.80 9 CLR None
2017-11-18 16:00 21 14 16 73 30° 3 - 29.80 29.84 9 FEW091 None
2017-11-18 15:00 19 12 - 73 - Calm - 29.85 29.89 9 FEW087 FEW097 None
2017-11-18 14:00 16 12 - 85 - Calm - 29.87 29.91 9 FEW093 None
2017-11-18 13:00 14 10 - 85 - Calm - 29.91 29.95 9 FEW067 SCT077 None
2017-11-18 12:00 9 7 - 92 - Calm - 29.93 29.97 9 CLR None
2017-11-18 11:00 10 7 - 84 350° 2 - 29.92 29.96 9 FEW077 FEW084 None
2017-11-18 10:00 12 10 - 92 - Calm - 29.91 29.95 9 CLR None
2017-11-18 09:00 10 7 - 84 - Calm - 29.91 29.95 9 CLR None
2017-11-18 08:00 16 10 - 78 270° 2 - 29.90 29.94 9 FEW082 None
2017-11-18 07:00 16 10 6 78 230° 7 - 29.91 29.95 9 FEW084 None
2017-11-18 06:00 16 10 9 78 250° 5 - 29.92 29.96 9 FEW082 None
2017-11-18 05:00 18 12 4 78 320° 13 - 29.94 29.97 9 FEW077 None

Support USWX by starting your Amazon purchase here.